Marcy Colony, South Dakota
Current Conditions -  °F | °C
As of 3:53 PM on Friday 31 Oct 2014 (Local Time) from KMHE Reporting Station
Clear Clear  
Wind Chill: 33°   Ceiling: Unl
Heat Index: 40°   Visibility: 10mi
Dew Point: 17°   Wind: 10mph
Humidity: 40%   Direction: 150°SSE
Pressure: 30.47"   Gusts: NA
Location:  43.4018°N, 97.9102°W
Report Text: KMHE 312053Z AUTO 15009KT 10SM CLR 04/M08 A3047 RMK AO2 SLP334 T00441083 56034
Loading
Personal Weather Stations






























Interactive Weather Map
Tropical Storm Tracking
New forecast layout! Learn more

10-Day Weather Forecast

Advertisements
Track Severe Weather on mobile